sensor_id;sensor_type;location;lat;lon;timestamp;P1;durP1;ratioP1;P2;durP2;ratioP2
45694;SDS011;31408;45.468;9.124;2022-12-10T00:01:19;27.30;;;12.50;;
45694;SDS011;31408;45.468;9.124;2022-12-10T00:03:46;27.23;;;12.40;;
45694;SDS011;31408;45.468;9.124;2022-12-10T00:06:13;24.67;;;11.50;;
45694;SDS011;31408;45.468;9.124;2022-12-10T00:08:41;23.63;;;11.48;;
45694;SDS011;31408;45.468;9.124;2022-12-10T00:11:07;25.38;;;12.27;;
45694;SDS011;31408;45.468;9.124;2022-12-10T00:13:35;26.05;;;11.80;;
45694;SDS011;31408;45.468;9.124;2022-12-10T00:16:02;25.52;;;12.57;;
45694;SDS011;31408;45.468;9.124;2022-12-10T00:18:29;26.23;;;11.80;;
45694;SDS011;31408;45.468;9.124;2022-12-10T00:20:55;24.98;;;12.15;;
45694;SDS011;31408;45.468;9.124;2022-12-10T00:23:20;29.27;;;13.40;;
45694;SDS011;31408;45.468;9.124;2022-12-10T00:25:46;28.05;;;13.48;;
45694;SDS011;31408;45.468;9.124;2022-12-10T00:28:12;26.65;;;12.18;;
45694;SDS011;31408;45.468;9.124;2022-12-10T00:30:39;28.63;;;12.32;;
45694;SDS011;31408;45.468;9.124;2022-12-10T00:33:04;27.73;;;13.13;;
45694;SDS011;31408;45.468;9.124;2022-12-10T00:35:30;27.15;;;12.77;;
45694;SDS011;31408;45.468;9.124;2022-12-10T00:37:56;27.23;;;12.32;;
45694;SDS011;31408;45.468;9.124;2022-12-10T00:40:21;27.27;;;12.73;;
45694;SDS011;31408;45.468;9.124;2022-12-10T00:42:47;32.15;;;13.52;;
45694;SDS011;31408;45.468;9.124;2022-12-10T00:45:14;25.08;;;11.55;;
45694;SDS011;31408;45.468;9.124;2022-12-10T00:47:39;24.30;;;11.90;;
45694;SDS011;31408;45.468;9.124;2022-12-10T00:50:05;26.70;;;12.32;;
45694;SDS011;31408;45.468;9.124;2022-12-10T00:52:30;24.02;;;12.13;;
45694;SDS011;31408;45.468;9.124;2022-12-10T00:54:56;25.70;;;12.00;;
45694;SDS011;31408;45.468;9.124;2022-12-10T00:57:22;25.95;;;13.60;;
45694;SDS011;31408;45.468;9.124;2022-12-10T00:59:48;28.75;;;12.63;;
45694;SDS011;31408;45.468;9.124;2022-12-10T01:02:13;26.98;;;12.35;;
45694;SDS011;31408;45.468;9.124;2022-12-10T01:04:39;29.23;;;12.73;;
45694;SDS011;31408;45.468;9.124;2022-12-10T01:07:07;25.92;;;11.77;;
45694;SDS011;31408;45.468;9.124;2022-12-10T01:09:33;27.40;;;12.88;;
45694;SDS011;31408;45.468;9.124;2022-12-10T01:12:00;29.80;;;12.57;;
45694;SDS011;31408;45.468;9.124;2022-12-10T01:14:29;27.00;;;12.43;;
45694;SDS011;31408;45.468;9.124;2022-12-10T01:16:57;27.73;;;12.85;;
45694;SDS011;31408;45.468;9.124;2022-12-10T01:19:24;26.20;;;12.60;;
45694;SDS011;31408;45.468;9.124;2022-12-10T01:21:50;26.80;;;13.23;;
45694;SDS011;31408;45.468;9.124;2022-12-10T01:24:20;26.85;;;12.07;;
45694;SDS011;31408;45.468;9.124;2022-12-10T01:26:46;30.27;;;13.15;;
45694;SDS011;31408;45.468;9.124;2022-12-10T01:29:12;30.58;;;14.25;;
45694;SDS011;31408;45.468;9.124;2022-12-10T01:31:39;27.63;;;13.52;;
45694;SDS011;31408;45.468;9.124;2022-12-10T01:34:06;32.10;;;14.23;;
45694;SDS011;31408;45.468;9.124;2022-12-10T01:36:33;26.20;;;12.82;;
45694;SDS011;31408;45.468;9.124;2022-12-10T01:39:04;28.55;;;12.73;;
45694;SDS011;31408;45.468;9.124;2022-12-10T01:46:48;31.25;;;14.43;;
45694;SDS011;31408;45.468;9.124;2022-12-10T01:49:25;25.27;;;12.80;;
45694;SDS011;31408;45.468;9.124;2022-12-10T01:51:58;29.42;;;14.13;;
45694;SDS011;31408;45.468;9.124;2022-12-10T01:54:30;29.67;;;14.45;;
45694;SDS011;31408;45.468;9.124;2022-12-10T01:57:05;28.95;;;13.05;;
45694;SDS011;31408;45.468;9.124;2022-12-10T01:59:33;28.33;;;13.55;;
45694;SDS011;31408;45.468;9.124;2022-12-10T02:05:04;28.73;;;13.63;;
45694;SDS011;31408;45.468;9.124;2022-12-10T02:07:39;29.23;;;14.13;;
45694;SDS011;31408;45.468;9.124;2022-12-10T02:12:56;29.02;;;12.43;;
45694;SDS011;31408;45.468;9.124;2022-12-10T02:15:25;26.83;;;13.23;;
45694;SDS011;31408;45.468;9.124;2022-12-10T02:17:54;29.00;;;14.27;;
45694;SDS011;31408;45.468;9.124;2022-12-10T02:20:23;31.80;;;14.65;;
45694;SDS011;31408;45.468;9.124;2022-12-10T02:22:55;28.58;;;12.95;;
45694;SDS011;31408;45.468;9.124;2022-12-10T02:25:46;34.45;;;15.07;;
45694;SDS011;31408;45.468;9.124;2022-12-10T02:31:09;30.65;;;14.13;;
45694;SDS011;31408;45.468;9.124;2022-12-10T02:33:37;30.98;;;15.27;;
45694;SDS011;31408;45.468;9.124;2022-12-10T02:36:05;34.00;;;16.98;;
45694;SDS011;31408;45.468;9.124;2022-12-10T02:38:34;36.00;;;16.13;;
45694;SDS011;31408;45.468;9.124;2022-12-10T02:41:04;31.60;;;15.07;;
45694;SDS011;31408;45.468;9.124;2022-12-10T02:43:31;35.60;;;17.15;;
45694;SDS011;31408;45.468;9.124;2022-12-10T02:45:58;35.47;;;15.68;;
45694;SDS011;31408;45.468;9.124;2022-12-10T02:48:24;33.28;;;16.55;;
45694;SDS011;31408;45.468;9.124;2022-12-10T02:50:50;36.72;;;15.98;;
45694;SDS011;31408;45.468;9.124;2022-12-10T02:53:16;33.05;;;15.55;;
45694;SDS011;31408;45.468;9.124;2022-12-10T02:58:28;37.33;;;16.42;;
45694;SDS011;31408;45.468;9.124;2022-12-10T03:01:10;30.80;;;15.70;;
45694;SDS011;31408;45.468;9.124;2022-12-10T03:03:49;35.50;;;15.52;;
45694;SDS011;31408;45.468;9.124;2022-12-10T03:06:20;33.78;;;15.75;;
45694;SDS011;31408;45.468;9.124;2022-12-10T03:09:01;38.78;;;16.52;;
45694;SDS011;31408;45.468;9.124;2022-12-10T03:11:29;31.27;;;16.02;;
45694;SDS011;31408;45.468;9.124;2022-12-10T03:16:46;34.72;;;14.52;;
45694;SDS011;31408;45.468;9.124;2022-12-10T03:19:16;36.97;;;18.48;;
45694;SDS011;31408;45.468;9.124;2022-12-10T03:21:44;36.88;;;16.90;;
45694;SDS011;31408;45.468;9.124;2022-12-10T03:24:10;36.72;;;17.58;;
45694;SDS011;31408;45.468;9.124;2022-12-10T03:26:39;43.10;;;19.05;;
45694;SDS011;31408;45.468;9.124;2022-12-10T03:29:10;35.65;;;17.27;;
45694;SDS011;31408;45.468;9.124;2022-12-10T03:31:48;32.35;;;15.38;;
45694;SDS011;31408;45.468;9.124;2022-12-10T03:34:14;38.88;;;17.67;;
45694;SDS011;31408;45.468;9.124;2022-12-10T03:36:40;37.70;;;16.45;;
45694;SDS011;31408;45.468;9.124;2022-12-10T03:39:06;37.47;;;16.13;;
45694;SDS011;31408;45.468;9.124;2022-12-10T03:41:32;35.53;;;17.48;;
45694;SDS011;31408;45.468;9.124;2022-12-10T03:43:58;34.38;;;15.90;;
45694;SDS011;31408;45.468;9.124;2022-12-10T03:46:25;37.13;;;15.88;;
45694;SDS011;31408;45.468;9.124;2022-12-10T03:48:52;32.83;;;15.63;;
45694;SDS011;31408;45.468;9.124;2022-12-10T03:51:18;38.00;;;18.05;;
45694;SDS011;31408;45.468;9.124;2022-12-10T03:53:44;37.28;;;18.25;;
45694;SDS011;31408;45.468;9.124;2022-12-10T03:56:10;34.35;;;15.48;;
45694;SDS011;31408;45.468;9.124;2022-12-10T03:58:35;34.28;;;16.30;;
45694;SDS011;31408;45.468;9.124;2022-12-10T04:01:01;35.15;;;15.80;;
45694;SDS011;31408;45.468;9.124;2022-12-10T04:03:28;33.20;;;14.52;;
45694;SDS011;31408;45.468;9.124;2022-12-10T04:05:53;36.65;;;17.30;;
45694;SDS011;31408;45.468;9.124;2022-12-10T04:08:19;37.00;;;16.90;;
45694;SDS011;31408;45.468;9.124;2022-12-10T04:10:44;36.40;;;16.73;;
45694;SDS011;31408;45.468;9.124;2022-12-10T04:13:10;34.25;;;15.82;;
45694;SDS011;31408;45.468;9.124;2022-12-10T04:15:59;38.83;;;17.08;;
45694;SDS011;31408;45.468;9.124;2022-12-10T04:18:43;35.80;;;17.67;;
45694;SDS011;31408;45.468;9.124;2022-12-10T04:21:08;35.85;;;16.42;;
45694;SDS011;31408;45.468;9.124;2022-12-10T04:23:53;37.85;;;15.43;;
45694;SDS011;31408;45.468;9.124;2022-12-10T04:26:37;36.58;;;15.45;;
45694;SDS011;31408;45.468;9.124;2022-12-10T04:29:18;33.63;;;17.20;;
45694;SDS011;31408;45.468;9.124;2022-12-10T04:31:44;35.22;;;16.73;;
45694;SDS011;31408;45.468;9.124;2022-12-10T04:34:10;36.03;;;17.55;;
45694;SDS011;31408;45.468;9.124;2022-12-10T04:36:35;39.00;;;17.08;;
45694;SDS011;31408;45.468;9.124;2022-12-10T04:39:01;45.13;;;18.15;;
45694;SDS011;31408;45.468;9.124;2022-12-10T04:41:26;35.13;;;16.55;;
45694;SDS011;31408;45.468;9.124;2022-12-10T04:43:52;40.85;;;18.02;;
45694;SDS011;31408;45.468;9.124;2022-12-10T04:46:18;43.70;;;20.23;;
45694;SDS011;31408;45.468;9.124;2022-12-10T04:48:43;44.38;;;18.70;;
45694;SDS011;31408;45.468;9.124;2022-12-10T04:51:09;41.22;;;19.35;;
45694;SDS011;31408;45.468;9.124;2022-12-10T04:53:34;45.22;;;18.58;;
45694;SDS011;31408;45.468;9.124;2022-12-10T04:55:59;38.42;;;17.45;;
45694;SDS011;31408;45.468;9.124;2022-12-10T04:58:26;41.17;;;18.67;;
45694;SDS011;31408;45.468;9.124;2022-12-10T05:01:02;47.03;;;18.77;;
45694;SDS011;31408;45.468;9.124;2022-12-10T05:05:54;40.05;;;17.98;;
45694;SDS011;31408;45.468;9.124;2022-12-10T05:08:19;40.75;;;18.02;;
45694;SDS011;31408;45.468;9.124;2022-12-10T05:10:45;46.40;;;19.33;;
45694;SDS011;31408;45.468;9.124;2022-12-10T05:13:10;41.63;;;18.95;;
45694;SDS011;31408;45.468;9.124;2022-12-10T05:15:39;43.53;;;17.92;;
45694;SDS011;31408;45.468;9.124;2022-12-10T05:18:04;40.08;;;15.85;;
45694;SDS011;31408;45.468;9.124;2022-12-10T05:20:30;44.03;;;16.38;;
45694;SDS011;31408;45.468;9.124;2022-12-10T05:22:55;42.25;;;19.48;;
45694;SDS011;31408;45.468;9.124;2022-12-10T05:25:40;51.97;;;20.23;;
45694;SDS011;31408;45.468;9.124;2022-12-10T05:28:21;44.85;;;17.00;;
45694;SDS011;31408;45.468;9.124;2022-12-10T05:30:47;49.50;;;18.80;;
45694;SDS011;31408;45.468;9.124;2022-12-10T05:33:13;44.25;;;17.35;;
45694;SDS011;31408;45.468;9.124;2022-12-10T05:35:39;41.38;;;17.48;;
45694;SDS011;31408;45.468;9.124;2022-12-10T05:38:04;52.85;;;21.60;;
45694;SDS011;31408;45.468;9.124;2022-12-10T05:40:33;46.08;;;18.50;;
45694;SDS011;31408;45.468;9.124;2022-12-10T05:43:00;45.97;;;20.75;;
45694;SDS011;31408;45.468;9.124;2022-12-10T05:45:25;45.08;;;19.67;;
45694;SDS011;31408;45.468;9.124;2022-12-10T05:47:51;52.58;;;18.38;;
45694;SDS011;31408;45.468;9.124;2022-12-10T05:50:16;53.33;;;20.90;;
45694;SDS011;31408;45.468;9.124;2022-12-10T05:52:42;47.33;;;17.50;;
45694;SDS011;31408;45.468;9.124;2022-12-10T05:55:07;44.40;;;17.67;;
45694;SDS011;31408;45.468;9.124;2022-12-10T05:57:33;41.65;;;15.68;;
45694;SDS011;31408;45.468;9.124;2022-12-10T06:00:01;39.13;;;16.02;;
45694;SDS011;31408;45.468;9.124;2022-12-10T06:02:37;36.80;;;16.10;;
45694;SDS011;31408;45.468;9.124;2022-12-10T06:05:02;43.15;;;16.52;;
45694;SDS011;31408;45.468;9.124;2022-12-10T06:07:29;46.78;;;18.48;;
45694;SDS011;31408;45.468;9.124;2022-12-10T06:09:54;34.22;;;14.75;;
45694;SDS011;31408;45.468;9.124;2022-12-10T06:12:20;42.45;;;16.73;;
45694;SDS011;31408;45.468;9.124;2022-12-10T06:14:46;38.92;;;15.18;;
45694;SDS011;31408;45.468;9.124;2022-12-10T06:17:12;43.50;;;18.05;;
45694;SDS011;31408;45.468;9.124;2022-12-10T06:19:37;45.15;;;16.77;;
45694;SDS011;31408;45.468;9.124;2022-12-10T06:22:02;41.05;;;17.80;;
45694;SDS011;31408;45.468;9.124;2022-12-10T06:24:28;46.50;;;16.15;;
45694;SDS011;31408;45.468;9.124;2022-12-10T06:26:54;39.75;;;16.58;;
45694;SDS011;31408;45.468;9.124;2022-12-10T06:29:20;39.38;;;16.42;;
45694;SDS011;31408;45.468;9.124;2022-12-10T06:31:45;33.60;;;15.10;;
45694;SDS011;31408;45.468;9.124;2022-12-10T06:34:11;43.08;;;16.92;;
45694;SDS011;31408;45.468;9.124;2022-12-10T06:36:36;41.70;;;17.73;;
45694;SDS011;31408;45.468;9.124;2022-12-10T06:39:02;40.75;;;17.08;;
45694;SDS011;31408;45.468;9.124;2022-12-10T06:41:28;41.10;;;16.70;;
45694;SDS011;31408;45.468;9.124;2022-12-10T06:43:54;48.17;;;18.98;;
45694;SDS011;31408;45.468;9.124;2022-12-10T06:46:24;42.88;;;17.25;;
45694;SDS011;31408;45.468;9.124;2022-12-10T06:48:50;48.67;;;16.98;;
45694;SDS011;31408;45.468;9.124;2022-12-10T06:51:16;44.70;;;19.08;;
45694;SDS011;31408;45.468;9.124;2022-12-10T06:53:42;41.38;;;18.35;;
45694;SDS011;31408;45.468;9.124;2022-12-10T06:56:11;44.30;;;17.52;;
45694;SDS011;31408;45.468;9.124;2022-12-10T06:58:38;41.42;;;16.33;;
45694;SDS011;31408;45.468;9.124;2022-12-10T07:01:10;40.15;;;16.75;;
45694;SDS011;31408;45.468;9.124;2022-12-10T07:03:47;40.58;;;17.15;;
45694;SDS011;31408;45.468;9.124;2022-12-10T07:06:16;40.97;;;16.10;;
45694;SDS011;31408;45.468;9.124;2022-12-10T07:08:42;42.33;;;15.48;;
45694;SDS011;31408;45.468;9.124;2022-12-10T07:11:09;47.22;;;17.60;;
45694;SDS011;31408;45.468;9.124;2022-12-10T07:13:36;39.08;;;15.90;;
45694;SDS011;31408;45.468;9.124;2022-12-10T07:16:03;45.08;;;17.08;;
45694;SDS011;31408;45.468;9.124;2022-12-10T07:18:28;49.05;;;18.83;;
45694;SDS011;31408;45.468;9.124;2022-12-10T07:20:54;44.00;;;16.88;;
45694;SDS011;31408;45.468;9.124;2022-12-10T07:23:20;47.67;;;18.02;;
45694;SDS011;31408;45.468;9.124;2022-12-10T07:25:45;44.88;;;18.50;;
45694;SDS011;31408;45.468;9.124;2022-12-10T07:28:11;41.28;;;19.48;;
45694;SDS011;31408;45.468;9.124;2022-12-10T07:30:36;51.90;;;19.20;;
45694;SDS011;31408;45.468;9.124;2022-12-10T07:33:02;40.75;;;16.45;;
45694;SDS011;31408;45.468;9.124;2022-12-10T07:35:28;43.20;;;14.68;;
45694;SDS011;31408;45.468;9.124;2022-12-10T07:37:53;40.83;;;16.27;;
45694;SDS011;31408;45.468;9.124;2022-12-10T07:40:19;41.45;;;15.15;;
45694;SDS011;31408;45.468;9.124;2022-12-10T07:42:45;46.92;;;16.58;;
45694;SDS011;31408;45.468;9.124;2022-12-10T07:45:10;51.60;;;17.60;;
45694;SDS011;31408;45.468;9.124;2022-12-10T07:47:37;51.53;;;17.75;;
45694;SDS011;31408;45.468;9.124;2022-12-10T07:50:03;41.95;;;16.83;;
45694;SDS011;31408;45.468;9.124;2022-12-10T07:52:29;48.38;;;15.65;;
45694;SDS011;31408;45.468;9.124;2022-12-10T07:54:54;44.50;;;18.58;;
45694;SDS011;31408;45.468;9.124;2022-12-10T07:57:20;40.75;;;16.67;;
45694;SDS011;31408;45.468;9.124;2022-12-10T07:59:48;49.63;;;18.55;;
45694;SDS011;31408;45.468;9.124;2022-12-10T08:02:14;42.65;;;17.80;;
45694;SDS011;31408;45.468;9.124;2022-12-10T08:04:39;40.85;;;15.88;;
45694;SDS011;31408;45.468;9.124;2022-12-10T08:07:05;41.17;;;16.08;;
45694;SDS011;31408;45.468;9.124;2022-12-10T08:09:30;41.35;;;17.25;;
45694;SDS011;31408;45.468;9.124;2022-12-10T08:11:56;45.65;;;16.83;;
45694;SDS011;31408;45.468;9.124;2022-12-10T08:14:27;54.60;;;17.92;;
45694;SDS011;31408;45.468;9.124;2022-12-10T08:16:52;38.78;;;16.38;;
45694;SDS011;31408;45.468;9.124;2022-12-10T08:19:18;51.30;;;16.80;;
45694;SDS011;31408;45.468;9.124;2022-12-10T08:21:43;44.83;;;16.92;;
45694;SDS011;31408;45.468;9.124;2022-12-10T08:24:09;49.95;;;18.48;;
45694;SDS011;31408;45.468;9.124;2022-12-10T08:26:34;49.58;;;15.45;;
45694;SDS011;31408;45.468;9.124;2022-12-10T08:29:00;41.08;;;15.45;;
45694;SDS011;31408;45.468;9.124;2022-12-10T08:31:27;47.17;;;17.98;;
45694;SDS011;31408;45.468;9.124;2022-12-10T08:33:53;41.63;;;15.60;;
45694;SDS011;31408;45.468;9.124;2022-12-10T08:36:19;42.28;;;14.98;;
45694;SDS011;31408;45.468;9.124;2022-12-10T08:38:45;41.53;;;15.32;;
45694;SDS011;31408;45.468;9.124;2022-12-10T08:41:11;45.40;;;16.50;;
45694;SDS011;31408;45.468;9.124;2022-12-10T08:43:47;41.67;;;15.52;;
45694;SDS011;31408;45.468;9.124;2022-12-10T08:46:23;43.97;;;16.85;;
45694;SDS011;31408;45.468;9.124;2022-12-10T08:48:50;56.38;;;21.27;;
45694;SDS011;31408;45.468;9.124;2022-12-10T08:51:16;45.13;;;17.63;;
45694;SDS011;31408;45.468;9.124;2022-12-10T08:53:43;44.40;;;17.63;;
45694;SDS011;31408;45.468;9.124;2022-12-10T08:56:09;48.30;;;17.20;;
45694;SDS011;31408;45.468;9.124;2022-12-10T08:58:35;45.13;;;16.58;;
45694;SDS011;31408;45.468;9.124;2022-12-10T09:01:05;48.45;;;19.38;;
45694;SDS011;31408;45.468;9.124;2022-12-10T09:03:34;60.60;;;20.40;;
45694;SDS011;31408;45.468;9.124;2022-12-10T09:06:04;48.10;;;17.33;;
45694;SDS011;31408;45.468;9.124;2022-12-10T09:08:30;46.22;;;17.42;;
45694;SDS011;31408;45.468;9.124;2022-12-10T09:10:56;44.72;;;18.95;;
45694;SDS011;31408;45.468;9.124;2022-12-10T09:13:21;49.05;;;17.10;;
45694;SDS011;31408;45.468;9.124;2022-12-10T09:15:50;59.17;;;20.17;;
45694;SDS011;31408;45.468;9.124;2022-12-10T09:18:17;49.88;;;19.02;;
45694;SDS011;31408;45.468;9.124;2022-12-10T09:20:42;52.20;;;20.48;;
45694;SDS011;31408;45.468;9.124;2022-12-10T09:23:08;53.17;;;19.92;;
45694;SDS011;31408;45.468;9.124;2022-12-10T09:25:33;45.80;;;19.13;;
45694;SDS011;31408;45.468;9.124;2022-12-10T09:27:59;48.15;;;17.45;;
45694;SDS011;31408;45.468;9.124;2022-12-10T09:30:24;47.10;;;18.55;;
45694;SDS011;31408;45.468;9.124;2022-12-10T09:32:50;55.00;;;19.13;;
45694;SDS011;31408;45.468;9.124;2022-12-10T09:35:15;52.70;;;18.38;;
45694;SDS011;31408;45.468;9.124;2022-12-10T09:37:41;58.72;;;18.75;;
45694;SDS011;31408;45.468;9.124;2022-12-10T09:40:09;54.35;;;19.30;;
45694;SDS011;31408;45.468;9.124;2022-12-10T09:42:43;48.70;;;18.58;;
45694;SDS011;31408;45.468;9.124;2022-12-10T09:53:32;46.40;;;17.05;;
45694;SDS011;31408;45.468;9.124;2022-12-10T09:55:57;43.33;;;17.50;;
45694;SDS011;31408;45.468;9.124;2022-12-10T09:58:24;50.60;;;19.10;;
45694;SDS011;31408;45.468;9.124;2022-12-10T10:01:01;57.22;;;18.77;;
45694;SDS011;31408;45.468;9.124;2022-12-10T10:03:31;48.75;;;18.30;;
45694;SDS011;31408;45.468;9.124;2022-12-10T10:05:57;51.95;;;18.27;;
45694;SDS011;31408;45.468;9.124;2022-12-10T10:08:26;45.88;;;17.73;;
45694;SDS011;31408;45.468;9.124;2022-12-10T10:11:01;55.78;;;18.50;;
45694;SDS011;31408;45.468;9.124;2022-12-10T10:13:41;50.17;;;17.35;;
45694;SDS011;31408;45.468;9.124;2022-12-10T10:16:14;48.53;;;17.27;;
45694;SDS011;31408;45.468;9.124;2022-12-10T10:21:23;50.40;;;17.70;;
45694;SDS011;31408;45.468;9.124;2022-12-10T10:23:50;45.50;;;20.42;;
45694;SDS011;31408;45.468;9.124;2022-12-10T10:26:16;49.72;;;17.20;;
45694;SDS011;31408;45.468;9.124;2022-12-10T10:28:42;51.72;;;17.75;;
45694;SDS011;31408;45.468;9.124;2022-12-10T10:31:19;52.33;;;17.52;;
45694;SDS011;31408;45.468;9.124;2022-12-10T10:33:48;55.33;;;18.40;;
45694;SDS011;31408;45.468;9.124;2022-12-10T10:36:22;49.05;;;17.13;;
45694;SDS011;31408;45.468;9.124;2022-12-10T10:38:51;53.33;;;17.48;;
45694;SDS011;31408;45.468;9.124;2022-12-10T10:41:17;44.55;;;18.35;;
45694;SDS011;31408;45.468;9.124;2022-12-10T10:43:43;47.65;;;18.75;;
45694;SDS011;31408;45.468;9.124;2022-12-10T10:48:38;45.67;;;15.85;;
45694;SDS011;31408;45.468;9.124;2022-12-10T10:51:06;49.40;;;17.55;;
45694;SDS011;31408;45.468;9.124;2022-12-10T10:53:42;48.25;;;18.58;;
45694;SDS011;31408;45.468;9.124;2022-12-10T10:56:10;48.03;;;17.80;;
45694;SDS011;31408;45.468;9.124;2022-12-10T10:58:37;52.80;;;20.30;;
45694;SDS011;31408;45.468;9.124;2022-12-10T11:01:12;47.95;;;18.90;;
45694;SDS011;31408;45.468;9.124;2022-12-10T11:03:44;60.10;;;20.00;;
45694;SDS011;31408;45.468;9.124;2022-12-10T11:06:16;47.78;;;18.45;;
45694;SDS011;31408;45.468;9.124;2022-12-10T11:08:43;49.25;;;20.40;;
45694;SDS011;31408;45.468;9.124;2022-12-10T11:11:17;48.03;;;18.67;;
45694;SDS011;31408;45.468;9.124;2022-12-10T11:13:45;44.70;;;18.08;;
45694;SDS011;31408;45.468;9.124;2022-12-10T11:16:21;46.97;;;20.02;;
45694;SDS011;31408;45.468;9.124;2022-12-10T11:21:20;37.53;;;17.00;;
45694;SDS011;31408;45.468;9.124;2022-12-10T11:23:53;37.72;;;14.48;;
45694;SDS011;31408;45.468;9.124;2022-12-10T11:28:48;35.70;;;15.57;;
45694;SDS011;31408;45.468;9.124;2022-12-10T11:39:58;36.28;;;15.75;;
45694;SDS011;31408;45.468;9.124;2022-12-10T11:51:03;34.67;;;14.55;;
45694;SDS011;31408;45.468;9.124;2022-12-10T11:56:43;39.42;;;17.45;;
45694;SDS011;31408;45.468;9.124;2022-12-10T12:02:07;36.22;;;18.27;;
45694;SDS011;31408;45.468;9.124;2022-12-10T12:04:50;39.45;;;17.90;;
45694;SDS011;31408;45.468;9.124;2022-12-10T12:08:00;35.80;;;16.30;;
45694;SDS011;31408;45.468;9.124;2022-12-10T12:13:00;39.03;;;16.70;;
45694;SDS011;31408;45.468;9.124;2022-12-10T12:15:34;41.55;;;18.10;;
45694;SDS011;31408;45.468;9.124;2022-12-10T12:18:02;36.97;;;15.27;;
45694;SDS011;31408;45.468;9.124;2022-12-10T12:20:40;41.05;;;17.17;;
45694;SDS011;31408;45.468;9.124;2022-12-10T12:25:46;34.83;;;15.80;;
45694;SDS011;31408;45.468;9.124;2022-12-10T12:28:31;36.05;;;16.05;;
45694;SDS011;31408;45.468;9.124;2022-12-10T12:31:05;35.67;;;16.13;;
45694;SDS011;31408;45.468;9.124;2022-12-10T12:33:36;35.92;;;16.73;;
45694;SDS011;31408;45.468;9.124;2022-12-10T12:36:10;39.42;;;16.23;;
45694;SDS011;31408;45.468;9.124;2022-12-10T12:41:06;38.83;;;16.67;;
45694;SDS011;31408;45.468;9.124;2022-12-10T12:46:13;41.70;;;18.88;;
45694;SDS011;31408;45.468;9.124;2022-12-10T12:48:44;35.38;;;15.55;;
45694;SDS011;31408;45.468;9.124;2022-12-10T12:51:21;40.90;;;19.55;;
45694;SDS011;31408;45.468;9.124;2022-12-10T12:54:09;35.75;;;15.63;;
45694;SDS011;31408;45.468;9.124;2022-12-10T13:04:51;31.75;;;15.02;;
45694;SDS011;31408;45.468;9.124;2022-12-10T13:09:50;35.47;;;17.23;;
45694;SDS011;31408;45.468;9.124;2022-12-10T13:12:24;43.63;;;18.52;;
45694;SDS011;31408;45.468;9.124;2022-12-10T13:17:28;37.20;;;16.63;;
45694;SDS011;31408;45.468;9.124;2022-12-10T13:25:39;38.13;;;17.67;;
45694;SDS011;31408;45.468;9.124;2022-12-10T13:42:20;35.15;;;16.83;;
45694;SDS011;31408;45.468;9.124;2022-12-10T13:52:57;31.80;;;13.48;;
45694;SDS011;31408;45.468;9.124;2022-12-10T13:55:34;29.63;;;13.68;;
45694;SDS011;31408;45.468;9.124;2022-12-10T14:00:38;35.72;;;16.85;;
45694;SDS011;31408;45.468;9.124;2022-12-10T14:08:23;34.28;;;17.08;;
45694;SDS011;31408;45.468;9.124;2022-12-10T14:10:52;35.75;;;16.27;;
45694;SDS011;31408;45.468;9.124;2022-12-10T14:13:18;34.42;;;17.35;;
45694;SDS011;31408;45.468;9.124;2022-12-10T14:15:55;40.72;;;18.15;;
45694;SDS011;31408;45.468;9.124;2022-12-10T14:18:25;42.10;;;17.80;;
45694;SDS011;31408;45.468;9.124;2022-12-10T14:20:53;33.28;;;16.35;;
45694;SDS011;31408;45.468;9.124;2022-12-10T14:23:20;34.88;;;16.98;;
45694;SDS011;31408;45.468;9.124;2022-12-10T14:26:02;35.22;;;16.50;;
45694;SDS011;31408;45.468;9.124;2022-12-10T14:28:32;35.08;;;17.30;;
45694;SDS011;31408;45.468;9.124;2022-12-10T14:30:58;38.22;;;19.65;;
45694;SDS011;31408;45.468;9.124;2022-12-10T14:33:24;38.03;;;16.77;;
45694;SDS011;31408;45.468;9.124;2022-12-10T14:35:50;40.78;;;17.80;;
45694;SDS011;31408;45.468;9.124;2022-12-10T14:38:27;36.83;;;17.45;;
45694;SDS011;31408;45.468;9.124;2022-12-10T14:40:55;36.97;;;17.10;;
45694;SDS011;31408;45.468;9.124;2022-12-10T14:43:21;34.67;;;15.95;;
45694;SDS011;31408;45.468;9.124;2022-12-10T14:45:59;31.77;;;14.43;;
45694;SDS011;31408;45.468;9.124;2022-12-10T14:48:26;39.30;;;18.88;;
45694;SDS011;31408;45.468;9.124;2022-12-10T14:50:52;39.53;;;19.08;;
45694;SDS011;31408;45.468;9.124;2022-12-10T14:53:25;36.05;;;15.48;;
45694;SDS011;31408;45.468;9.124;2022-12-10T14:55:53;37.47;;;16.65;;
45694;SDS011;31408;45.468;9.124;2022-12-10T14:58:26;41.90;;;16.92;;
45694;SDS011;31408;45.468;9.124;2022-12-10T15:00:55;37.47;;;19.00;;
45694;SDS011;31408;45.468;9.124;2022-12-10T15:03:24;39.78;;;17.52;;
45694;SDS011;31408;45.468;9.124;2022-12-10T15:05:55;43.33;;;19.98;;
45694;SDS011;31408;45.468;9.124;2022-12-10T15:08:21;37.88;;;18.33;;
45694;SDS011;31408;45.468;9.124;2022-12-10T15:10:50;37.53;;;16.95;;
45694;SDS011;31408;45.468;9.124;2022-12-10T15:13:21;42.85;;;19.02;;
45694;SDS011;31408;45.468;9.124;2022-12-10T15:15:54;39.67;;;18.67;;
45694;SDS011;31408;45.468;9.124;2022-12-10T15:18:28;38.28;;;18.73;;
45694;SDS011;31408;45.468;9.124;2022-12-10T15:21:11;38.03;;;18.95;;
45694;SDS011;31408;45.468;9.124;2022-12-10T15:23:39;35.85;;;18.17;;
45694;SDS011;31408;45.468;9.124;2022-12-10T15:28:47;47.78;;;20.42;;
45694;SDS011;31408;45.468;9.124;2022-12-10T15:33:50;38.78;;;17.42;;
45694;SDS011;31408;45.468;9.124;2022-12-10T15:36:19;43.42;;;18.95;;
45694;SDS011;31408;45.468;9.124;2022-12-10T15:38:47;37.85;;;17.83;;
45694;SDS011;31408;45.468;9.124;2022-12-10T15:41:21;36.80;;;17.70;;
45694;SDS011;31408;45.468;9.124;2022-12-10T15:43:52;41.33;;;18.75;;
45694;SDS011;31408;45.468;9.124;2022-12-10T15:46:25;36.45;;;18.63;;
45694;SDS011;31408;45.468;9.124;2022-12-10T15:48:51;42.72;;;18.10;;
45694;SDS011;31408;45.468;9.124;2022-12-10T15:51:16;36.08;;;17.52;;
45694;SDS011;31408;45.468;9.124;2022-12-10T15:53:42;40.00;;;20.17;;
45694;SDS011;31408;45.468;9.124;2022-12-10T15:56:08;43.70;;;18.77;;
45694;SDS011;31408;45.468;9.124;2022-12-10T15:58:34;37.00;;;16.48;;
45694;SDS011;31408;45.468;9.124;2022-12-10T16:00:59;37.13;;;15.98;;
45694;SDS011;31408;45.468;9.124;2022-12-10T16:03:26;36.50;;;16.33;;
45694;SDS011;31408;45.468;9.124;2022-12-10T16:05:53;31.48;;;15.35;;
45694;SDS011;31408;45.468;9.124;2022-12-10T16:08:20;34.90;;;17.30;;
45694;SDS011;31408;45.468;9.124;2022-12-10T16:10:53;41.70;;;19.48;;
45694;SDS011;31408;45.468;9.124;2022-12-10T16:13:23;35.97;;;17.27;;
45694;SDS011;31408;45.468;9.124;2022-12-10T16:16:00;40.78;;;19.55;;
45694;SDS011;31408;45.468;9.124;2022-12-10T16:18:29;44.33;;;17.73;;
45694;SDS011;31408;45.468;9.124;2022-12-10T16:20:55;43.45;;;19.00;;
45694;SDS011;31408;45.468;9.124;2022-12-10T16:23:23;38.72;;;18.25;;
45694;SDS011;31408;45.468;9.124;2022-12-10T16:25:48;45.20;;;19.52;;
45694;SDS011;31408;45.468;9.124;2022-12-10T16:28:15;41.83;;;19.73;;
45694;SDS011;31408;45.468;9.124;2022-12-10T16:30:43;49.08;;;20.75;;
45694;SDS011;31408;45.468;9.124;2022-12-10T16:33:11;44.10;;;19.42;;
45694;SDS011;31408;45.468;9.124;2022-12-10T16:35:36;45.13;;;21.35;;
45694;SDS011;31408;45.468;9.124;2022-12-10T16:38:02;42.35;;;21.58;;